createdAt,value
2022-10-17T00:15:01.142Z,-77
2022-10-17T00:45:10.297Z,-77
2022-10-17T01:15:10.975Z,-74
2022-10-17T01:45:18.768Z,-76
2022-10-17T02:15:24.042Z,-75
2022-10-17T02:45:30.866Z,-75
2022-10-17T03:15:39.826Z,-75
2022-10-17T03:45:42.844Z,-75
2022-10-17T04:15:52.665Z,-74
2022-10-17T04:46:01.174Z,-74
2022-10-17T05:16:09.878Z,-75
2022-10-17T05:46:14.357Z,-74
2022-10-17T06:16:15.173Z,-73
2022-10-17T06:46:24.888Z,-71
2022-10-17T07:16:25.853Z,-72
2022-10-17T07:46:36.651Z,-72
2022-10-17T08:16:46.356Z,-73
2022-10-17T08:46:53.718Z,-73
2022-10-17T09:17:07.216Z,-74
2022-10-17T09:47:14.852Z,-78
2022-10-17T10:17:16.871Z,-78
2022-10-17T10:47:21.708Z,-76
2022-10-17T11:17:30.676Z,-74
2022-10-17T11:47:48.197Z,-69
2022-10-17T12:17:53.683Z,-71
2022-10-17T12:47:53.919Z,-67
2022-10-17T13:17:55.158Z,-72
2022-10-17T13:48:03.243Z,-72
2022-10-17T14:18:09.830Z,-74
2022-10-17T14:48:09.980Z,-73
2022-10-17T15:18:15.640Z,-73
2022-10-17T15:48:19.238Z,-74
2022-10-17T16:18:26.665Z,-72
2022-10-17T16:48:33.774Z,-73
2022-10-17T17:18:34.639Z,-73
2022-10-17T17:48:37.400Z,-72
2022-10-17T18:18:47.328Z,-73
2022-10-17T18:48:49.150Z,-73
2022-10-17T19:18:50.244Z,-74
2022-10-17T19:48:52.842Z,-73
2022-10-17T20:18:57.336Z,-75
2022-10-17T20:49:16.249Z,-75
2022-10-17T21:19:23.596Z,-75
2022-10-17T21:49:27.108Z,-75
2022-10-17T22:19:35.808Z,-75
2022-10-17T22:49:42.277Z,-76
2022-10-17T23:19:45.454Z,-76
2022-10-17T23:49:57.228Z,-75
